Time;durP1;ratioP1;P1;durP2;ratioP2;P2;SDS_P1;SDS_P2;PMS_P1;PMS_P2;Temp;Humidity;BMP_temperature;BMP_pressure;BME280_temperature;BME280_humidity;BME280_pressure;Samples;Min_cycle;Max_cycle;Signal;HPM_P1;HPM_P2
2023/07/27 00:01:19;;;;;;;9.55;5.28;;;14.10;99.90;;;;;;5100461;28;20054;-57
2023/07/27 00:03:44;;;;;;;10.27;5.07;;;14.00;99.90;;;;;;5100172;28;20515;-58
2023/07/27 00:06:10;;;;;;;10.70;5.35;;;14.10;99.90;;;;;;5081381;28;20109;-58
2023/07/27 00:08:35;;;;;;;12.73;4.43;;;14.00;99.90;;;;;;5101250;28;20100;-58
2023/07/27 00:11:01;;;;;;;9.00;5.03;;;14.10;99.90;;;;;;5099592;28;20032;-58
2023/07/27 00:13:27;;;;;;;11.50;5.07;;;14.00;99.90;;;;;;5100569;28;20070;-57
2023/07/27 00:15:52;;;;;;;9.82;5.30;;;14.10;99.90;;;;;;5081256;28;20044;-58
2023/07/27 00:18:18;;;;;;;9.43;5.25;;;14.10;99.90;;;;;;5081590;28;20322;-58
2023/07/27 00:20:44;;;;;;;9.77;5.18;;;14.00;99.90;;;;;;5100136;28;20047;-58
2023/07/27 00:23:09;;;;;;;11.13;4.78;;;13.90;99.90;;;;;;5099033;28;20071;-58
2023/07/27 00:25:35;;;;;;;9.73;5.35;;;14.00;99.90;;;;;;5082555;28;20534;-58
2023/07/27 00:28:01;;;;;;;9.73;4.78;;;14.00;99.90;;;;;;5099196;28;20055;-58
2023/07/27 00:30:26;;;;;;;8.93;4.60;;;13.90;99.90;;;;;;5100672;28;20135;-58
2023/07/27 00:32:52;;;;;;;12.20;4.93;;;13.90;99.90;;;;;;5098844;28;20441;-57
2023/07/27 00:35:17;;;;;;;10.52;4.93;;;13.90;99.90;;;;;;5100087;28;20040;-58
2023/07/27 00:37:43;;;;;;;9.30;4.97;;;13.90;99.90;;;;;;5099403;28;20040;-58
2023/07/27 00:40:09;;;;;;;8.45;4.78;;;13.90;99.90;;;;;;5099544;28;20048;-58
2023/07/27 00:42:35;;;;;;;10.00;4.80;;;13.90;99.90;;;;;;5100043;28;20040;-57
2023/07/27 00:45:00;;;;;;;11.90;5.45;;;13.80;99.90;;;;;;5098369;28;20048;-58
2023/07/27 00:47:26;;;;;;;10.13;4.88;;;13.80;99.90;;;;;;5081888;28;20048;-58
2023/07/27 00:49:52;;;;;;;10.93;4.60;;;13.80;99.90;;;;;;5098328;28;20040;-58
2023/07/27 00:52:18;;;;;;;9.77;4.82;;;13.80;99.90;;;;;;5099625;28;20039;-58
2023/07/27 00:54:44;;;;;;;13.48;4.80;;;13.80;99.90;;;;;;5099185;28;20440;-58
2023/07/27 00:57:10;;;;;;;9.52;5.07;;;13.80;99.90;;;;;;5090276;28;20044;-57
2023/07/27 00:59:38;;;;;;;10.13;5.28;;;13.80;99.90;;;;;;5080149;28;20093;-58
2023/07/27 01:02:04;;;;;;;9.75;4.80;;;13.90;99.90;;;;;;5060166;28;20048;-58
2023/07/27 01:04:30;;;;;;;9.00;4.85;;;13.80;99.90;;;;;;5079956;28;20048;-57
2023/07/27 01:06:56;;;;;;;9.93;5.20;;;13.90;99.90;;;;;;5078247;28;20040;-58
2023/07/27 01:09:22;;;;;;;10.52;5.15;;;13.90;99.90;;;;;;5079116;28;20516;-58
2023/07/27 01:12:23;;;;;;;11.02;5.57;;;13.90;99.90;;;;;;5060396;28;20511;-58
2023/07/27 01:15:07;;;;;;;11.13;5.13;;;13.90;99.90;;;;;;5005268;28;20129;-58
2023/07/27 01:17:56;;;;;;;9.73;4.72;;;13.90;99.90;;;;;;5079652;28;20052;-58
2023/07/27 01:20:39;;;;;;;11.88;5.68;;;13.90;99.90;;;;;;5078437;28;20070;-58
2023/07/27 01:23:28;;;;;;;9.45;4.95;;;13.90;99.90;;;;;;5060600;28;20120;-58
2023/07/27 01:26:24;;;;;;;9.85;5.10;;;13.80;99.90;;;;;;5079702;28;20154;-58
2023/07/27 01:29:32;;;;;;;10.25;4.97;;;13.80;99.90;;;;;;5078170;28;20040;-58
2023/07/27 01:31:58;;;;;;;11.20;4.90;;;13.80;99.90;;;;;;5067161;28;20053;-57
2023/07/27 01:34:31;;;;;;;9.27;4.32;;;13.80;99.90;;;;;;5061711;28;20039;-57
2023/07/27 01:37:01;;;;;;;9.80;4.70;;;13.70;99.90;;;;;;5078223;28;20048;-58
2023/07/27 01:39:31;;;;;;;9.43;4.78;;;13.70;99.90;;;;;;5079441;28;20040;-58
2023/07/27 01:41:59;;;;;;;9.88;4.80;;;13.70;99.90;;;;;;5078369;28;20057;-56
2023/07/27 01:44:26;;;;;;;11.07;5.30;;;13.70;99.90;;;;;;5078393;28;20036;-58
2023/07/27 01:46:53;;;;;;;9.48;4.55;;;13.60;99.90;;;;;;5079551;28;20055;-58
2023/07/27 01:49:21;;;;;;;9.73;5.05;;;13.60;99.90;;;;;;5077797;28;20071;-58
2023/07/27 01:51:48;;;;;;;10.60;4.60;;;13.70;99.90;;;;;;5079309;28;20056;-57
2023/07/27 01:54:15;;;;;;;12.25;5.38;;;13.70;99.90;;;;;;5077686;28;20138;-58
2023/07/27 01:56:42;;;;;;;12.77;5.10;;;13.70;99.90;;;;;;5084216;28;20055;-57
2023/07/27 01:59:09;;;;;;;10.40;5.00;;;13.70;99.90;;;;;;5098857;28;20500;-57
2023/07/27 02:01:37;;;;;;;9.23;4.78;;;13.70;99.90;;;;;;5063482;28;20072;-58
2023/07/27 02:04:04;;;;;;;9.02;4.45;;;13.70;99.90;;;;;;5099865;28;20050;-57
2023/07/27 02:06:30;;;;;;;10.02;4.88;;;13.70;99.90;;;;;;5097962;28;20036;-58
2023/07/27 02:08:55;;;;;;;9.18;4.55;;;13.80;99.90;;;;;;5099338;28;20073;-59
2023/07/27 02:11:23;;;;;;;10.00;5.35;;;13.70;99.90;;;;;;5097877;28;20048;-58
2023/07/27 02:14:05;;;;;;;10.82;4.57;;;13.80;99.90;;;;;;5099074;28;20519;-58
2023/07/27 02:16:45;;;;;;;9.80;4.13;;;13.80;99.90;;;;;;5099267;28;20054;-57
2023/07/27 02:19:15;;;;;;;9.93;4.47;;;13.80;99.90;;;;;;5097462;28;20056;-57
2023/07/27 02:21:42;;;;;;;8.85;4.72;;;13.80;99.90;;;;;;5099396;28;20044;-55
2023/07/27 02:24:08;;;;;;;8.77;4.55;;;13.80;99.90;;;;;;5097721;28;20266;-58
2023/07/27 02:26:35;;;;;;;8.95;4.80;;;13.80;99.90;;;;;;5100997;28;20048;-57
2023/07/27 02:29:00;;;;;;;8.98;4.28;;;13.80;99.90;;;;;;5102143;28;20044;-58
2023/07/27 02:31:26;;;;;;;8.20;4.32;;;13.80;99.90;;;;;;5102450;28;20318;-57
2023/07/27 02:33:52;;;;;;;10.30;4.72;;;13.90;99.90;;;;;;5102893;28;20089;-58
2023/07/27 02:36:18;;;;;;;9.35;4.38;;;13.80;99.90;;;;;;5101441;28;20043;-57
2023/07/27 02:38:43;;;;;;;10.60;4.93;;;13.80;99.90;;;;;;5102833;28;20521;-58
2023/07/27 02:41:12;;;;;;;9.45;5.70;;;13.90;99.90;;;;;;5101448;28;20080;-57
2023/07/27 02:43:38;;;;;;;10.43;4.90;;;13.80;99.90;;;;;;5102289;28;20043;-57
2023/07/27 02:46:05;;;;;;;10.38;4.90;;;13.90;99.90;;;;;;5101678;28;20044;-58
2023/07/27 02:48:30;;;;;;;10.30;5.25;;;13.80;99.90;;;;;;5101558;28;20040;-57
2023/07/27 02:50:56;;;;;;;10.07;5.78;;;13.90;99.90;;;;;;5102141;28;20040;-57
2023/07/27 02:53:22;;;;;;;9.13;4.70;;;13.90;99.90;;;;;;5100980;28;20055;-57
2023/07/27 02:56:07;;;;;;;9.50;4.20;;;14.00;99.90;;;;;;5102334;28;20111;-58
2023/07/27 02:58:32;;;;;;;8.95;4.35;;;13.90;99.90;;;;;;5080609;28;20048;-57
2023/07/27 03:01:01;;;;;;;8.30;4.55;;;14.00;99.90;;;;;;5081353;28;20401;-58
2023/07/27 03:03:27;;;;;;;8.98;4.57;;;14.00;99.90;;;;;;5081121;28;20067;-57
2023/07/27 03:06:00;;;;;;;10.25;4.53;;;14.00;99.90;;;;;;5080851;28;20040;-57
2023/07/27 03:08:26;;;;;;;9.88;4.70;;;14.00;99.90;;;;;;5082133;28;20104;-57
2023/07/27 03:10:52;;;;;;;8.13;4.55;;;14.00;99.90;;;;;;5080664;28;20036;-57
2023/07/27 03:13:18;;;;;;;11.30;5.25;;;14.00;99.90;;;;;;5081881;28;20059;-57
2023/07/27 03:15:43;;;;;;;14.30;5.78;;;14.00;99.90;;;;;;5080607;28;20635;-57
2023/07/27 03:18:09;;;;;;;8.57;4.22;;;14.00;99.90;;;;;;5081212;28;20911;-57
2023/07/27 03:20:41;;;;;;;9.73;4.60;;;14.00;99.90;;;;;;5062984;28;21232;-58
2023/07/27 03:23:08;;;;;;;8.68;4.55;;;14.00;99.90;;;;;;5080595;28;20076;-57
2023/07/27 03:25:37;;;;;;;8.57;4.15;;;14.10;99.90;;;;;;5082001;28;20527;-57
2023/07/27 03:28:05;;;;;;;10.57;4.65;;;14.00;99.90;;;;;;5080187;28;20122;-57
2023/07/27 03:30:31;;;;;;;10.13;4.38;;;14.10;99.90;;;;;;5081407;28;20415;-57
2023/07/27 03:32:57;;;;;;;10.30;4.80;;;14.10;99.90;;;;;;5080368;28;20104;-58
2023/07/27 03:35:22;;;;;;;10.88;6.00;;;14.10;99.90;;;;;;5081244;28;20045;-58
2023/07/27 03:37:50;;;;;;;9.30;4.78;;;14.10;99.90;;;;;;5079860;28;20056;-58
2023/07/27 03:40:16;;;;;;;9.77;4.28;;;14.10;99.90;;;;;;5080237;28;20048;-58
2023/07/27 03:42:42;;;;;;;9.48;4.65;;;14.10;99.90;;;;;;5081686;28;20044;-58
2023/07/27 03:45:08;;;;;;;8.48;4.43;;;14.10;99.90;;;;;;5079498;28;20045;-58
2023/07/27 03:47:34;;;;;;;11.10;4.50;;;14.10;99.90;;;;;;5081188;28;20044;-59
2023/07/27 03:49:59;;;;;;;9.27;4.60;;;14.10;99.90;;;;;;5061445;28;20040;-58
2023/07/27 03:52:25;;;;;;;10.45;4.95;;;14.10;99.90;;;;;;5081048;28;20092;-58
2023/07/27 03:54:51;;;;;;;10.02;4.88;;;14.10;99.90;;;;;;5080552;28;20066;-58
2023/07/27 03:57:16;;;;;;;9.50;5.22;;;14.00;99.90;;;;;;5090489;28;20510;-58
2023/07/27 03:59:42;;;;;;;8.68;4.70;;;14.20;99.90;;;;;;5101180;28;20048;-58
2023/07/27 04:02:08;;;;;;;9.45;4.93;;;14.10;99.90;;;;;;5064928;28;20400;-58
2023/07/27 04:04:33;;;;;;;10.57;5.60;;;14.00;99.90;;;;;;5100911;28;20044;-58
2023/07/27 04:06:59;;;;;;;12.05;5.22;;;14.00;99.90;;;;;;5099653;28;20131;-58
2023/07/27 04:09:25;;;;;;;12.50;5.50;;;14.00;99.90;;;;;;5100996;28;20040;-59
2023/07/27 04:11:51;;;;;;;10.63;5.47;;;14.10;99.90;;;;;;5099880;28;20044;-58
2023/07/27 04:14:17;;;;;;;11.77;5.53;;;14.10;99.90;;;;;;5100368;28;20040;-56
2023/07/27 04:16:43;;;;;;;9.38;5.32;;;14.10;99.90;;;;;;5101017;28;20080;-56
2023/07/27 04:19:09;;;;;;;9.23;4.80;;;14.10;99.90;;;;;;5099377;28;20078;-57
2023/07/27 04:21:34;;;;;;;10.77;5.30;;;14.00;99.90;;;;;;5100643;28;20044;-58
2023/07/27 04:24:00;;;;;;;14.13;5.43;;;14.10;99.90;;;;;;5099670;28;20577;-57
2023/07/27 04:26:26;;;;;;;9.57;5.35;;;14.00;99.90;;;;;;5100704;28;20055;-57
2023/07/27 04:28:51;;;;;;;11.38;5.72;;;14.00;99.90;;;;;;5099386;28;20075;-58
2023/07/27 04:31:17;;;;;;;10.55;5.90;;;14.00;99.90;;;;;;5100206;28;20036;-57
2023/07/27 04:33:42;;;;;;;11.55;6.30;;;14.00;99.90;;;;;;5100525;28;20442;-57
2023/07/27 04:36:08;;;;;;;12.07;5.20;;;14.00;99.90;;;;;;5099283;28;20050;-57
2023/07/27 04:38:34;;;;;;;10.38;6.15;;;14.10;99.90;;;;;;5100688;28;20162;-57
2023/07/27 04:40:59;;;;;;;12.32;6.63;;;14.00;99.90;;;;;;5099113;28;20043;-57
2023/07/27 04:43:25;;;;;;;11.63;6.18;;;14.10;99.90;;;;;;5099919;28;20044;-57
2023/07/27 04:45:51;;;;;;;12.77;6.57;;;14.00;99.90;;;;;;5099175;28;20150;-57
2023/07/27 04:48:16;;;;;;;11.02;6.25;;;14.00;99.90;;;;;;5099770;28;20040;-57
2023/07/27 04:50:42;;;;;;;10.93;5.72;;;14.00;99.90;;;;;;5099825;28;20101;-57
2023/07/27 04:53:07;;;;;;;11.18;6.38;;;14.00;99.90;;;;;;5099412;28;20108;-57
2023/07/27 04:55:33;;;;;;;11.02;6.75;;;14.00;99.90;;;;;;5100261;28;20576;-58
2023/07/27 04:57:59;;;;;;;12.82;7.45;;;14.00;99.90;;;;;;5082620;28;20059;-58
2023/07/27 05:00:25;;;;;;;11.98;6.60;;;14.10;99.90;;;;;;5079678;28;20610;-58
2023/07/27 05:02:50;;;;;;;11.98;6.95;;;14.10;99.90;;;;;;5079017;28;20084;-58
2023/07/27 05:05:16;;;;;;;12.45;6.90;;;14.00;99.90;;;;;;5079667;28;20047;-58
2023/07/27 05:07:42;;;;;;;13.27;7.38;;;14.00;99.90;;;;;;5079116;28;20522;-58
2023/07/27 05:10:07;;;;;;;12.07;7.18;;;14.00;99.90;;;;;;5079036;28;20040;-58
2023/07/27 05:12:33;;;;;;;14.10;7.38;;;14.10;99.90;;;;;;5079760;28;20051;-58
2023/07/27 05:14:59;;;;;;;12.43;7.43;;;14.10;99.90;;;;;;5078346;28;20092;-57
2023/07/27 05:17:25;;;;;;;12.15;7.25;;;14.10;99.90;;;;;;5075945;28;20037;-58
2023/07/27 05:19:53;;;;;;;14.65;8.32;;;14.10;99.90;;;;;;5056567;28;20122;-58
2023/07/27 05:22:19;;;;;;;12.43;7.57;;;14.10;99.90;;;;;;5075951;28;20048;-56
2023/07/27 05:24:44;;;;;;;13.32;7.95;;;14.10;99.90;;;;;;5075696;28;20043;-57
2023/07/27 05:27:10;;;;;;;13.30;7.90;;;14.20;99.90;;;;;;5075316;28;20277;-58
2023/07/27 05:29:36;;;;;;;14.10;8.18;;;14.20;99.90;;;;;;5058373;28;20051;-57
2023/07/27 05:32:02;;;;;;;16.45;8.57;;;14.20;99.90;;;;;;5074824;28;20056;-58
2023/07/27 05:34:28;;;;;;;15.50;8.45;;;14.20;99.90;;;;;;5076436;28;20487;-57
2023/07/27 05:36:53;;;;;;;12.82;7.50;;;14.20;99.90;;;;;;5075006;28;20144;-57
2023/07/27 05:39:19;;;;;;;13.20;7.60;;;14.30;99.90;;;;;;5075933;28;20072;-57
2023/07/27 05:41:45;;;;;;;14.38;8.57;;;14.20;99.90;;;;;;5074792;28;20056;-57
2023/07/27 05:44:10;;;;;;;13.48;7.78;;;14.20;99.90;;;;;;5057504;28;20536;-57
2023/07/27 05:46:36;;;;;;;12.73;7.65;;;14.20;99.90;;;;;;5076270;28;20044;-57
2023/07/27 05:49:03;;;;;;;13.52;7.35;;;14.10;99.90;;;;;;5056185;28;20605;-57
2023/07/27 05:51:29;;;;;;;12.60;7.18;;;14.20;99.90;;;;;;5076057;28;20495;-58
2023/07/27 05:53:55;;;;;;;11.95;7.03;;;14.10;99.90;;;;;;5074197;28;20045;-57
2023/07/27 05:56:20;;;;;;;11.70;7.22;;;14.20;99.90;;;;;;5077965;28;20082;-57
2023/07/27 05:58:46;;;;;;;11.20;6.97;;;14.20;99.90;;;;;;5095157;28;20064;-57
2023/07/27 06:01:12;;;;;;;13.90;7.28;;;14.20;99.90;;;;;;5097072;28;20437;-57
2023/07/27 06:03:38;;;;;;;11.60;6.50;;;14.20;99.90;;;;;;5100141;28;20116;-57
2023/07/27 06:06:03;;;;;;;11.15;6.50;;;14.20;99.90;;;;;;5098574;28;20123;-57
2023/07/27 06:08:29;;;;;;;11.75;6.30;;;14.20;99.90;;;;;;5100282;28;20040;-57
2023/07/27 06:11:07;;;;;;;12.18;6.40;;;14.20;99.90;;;;;;5098594;28;20071;-57
2023/07/27 06:13:33;;;;;;;11.43;6.28;;;14.30;99.90;;;;;;5099862;28;20052;-57
2023/07/27 06:15:59;;;;;;;11.63;6.45;;;14.30;99.90;;;;;;5098075;28;20051;-57
2023/07/27 06:18:26;;;;;;;13.35;6.65;;;14.30;99.90;;;;;;5080004;28;20186;-57
2023/07/27 06:20:52;;;;;;;10.40;6.07;;;14.20;99.90;;;;;;5099257;28;20506;-57
2023/07/27 06:23:17;;;;;;;11.45;5.75;;;14.30;99.90;;;;;;5097414;28;20392;-57
2023/07/27 06:25:44;;;;;;;10.95;6.13;;;14.30;99.90;;;;;;5099116;28;20094;-57
2023/07/27 06:28:10;;;;;;;10.82;6.57;;;14.40;99.90;;;;;;5097467;28;20047;-57
2023/07/27 06:30:36;;;;;;;10.57;6.40;;;14.40;99.90;;;;;;5098648;28;20095;-57
2023/07/27 06:33:02;;;;;;;12.45;6.88;;;14.60;99.90;;;;;;5098059;28;20499;-57
2023/07/27 06:35:28;;;;;;;11.82;6.68;;;14.70;99.90;;;;;;5098639;28;20392;-57
2023/07/27 06:37:54;;;;;;;11.05;6.00;;;14.80;99.90;;;;;;5098652;28;20075;-56
2023/07/27 06:40:20;;;;;;;11.00;6.07;;;14.90;99.90;;;;;;5097007;28;20051;-57
2023/07/27 06:42:45;;;;;;;9.95;5.47;;;15.00;99.90;;;;;;5098811;28;20069;-57
2023/07/27 06:45:11;;;;;;;10.90;6.53;;;15.10;99.90;;;;;;5097442;28;20562;-56
2023/07/27 06:47:37;;;;;;;11.65;6.75;;;15.10;99.90;;;;;;5098591;28;20403;-56
2023/07/27 06:50:03;;;;;;;11.98;6.25;;;15.10;99.90;;;;;;5096996;28;20039;-57
2023/07/27 06:52:29;;;;;;;10.70;6.18;;;15.10;99.90;;;;;;5097915;28;20059;-57
2023/07/27 06:54:55;;;;;;;11.13;5.82;;;15.10;99.90;;;;;;5098252;28;20044;-57
2023/07/27 06:57:24;;;;;;;9.30;5.57;;;15.20;99.90;;;;;;5086721;28;20044;-57
2023/07/27 06:59:49;;;;;;;9.80;5.95;;;15.20;99.90;;;;;;5078146;28;20063;-56
2023/07/27 07:02:15;;;;;;;11.30;6.00;;;15.10;99.90;;;;;;5076819;28;20044;-57
2023/07/27 07:04:41;;;;;;;11.35;5.90;;;15.10;99.90;;;;;;5077577;28;20230;-57
2023/07/27 07:07:07;;;;;;;8.98;5.22;;;15.20;99.90;;;;;;5076864;28;20048;-56
2023/07/27 07:09:35;;;;;;;10.98;5.15;;;15.20;99.90;;;;;;5077928;28;20040;-57
2023/07/27 07:12:03;;;;;;;10.27;5.22;;;15.20;99.90;;;;;;5076614;28;20071;-57
2023/07/27 07:14:29;;;;;;;10.07;5.78;;;15.20;99.90;;;;;;5076543;28;20032;-57
2023/07/27 07:16:54;;;;;;;10.23;5.45;;;15.20;99.90;;;;;;5077743;28;20040;-56
2023/07/27 07:19:20;;;;;;;9.88;5.22;;;15.20;99.90;;;;;;5076128;28;20048;-57
2023/07/27 07:21:46;;;;;;;10.00;5.20;;;15.30;99.90;;;;;;5077472;28;20128;-57
2023/07/27 07:24:11;;;;;;;8.75;5.10;;;15.30;99.90;;;;;;5076121;28;20044;-56
2023/07/27 07:26:37;;;;;;;8.73;5.00;;;15.40;99.90;;;;;;5077304;28;20071;-56
2023/07/27 07:29:03;;;;;;;11.52;5.47;;;15.40;99.90;;;;;;5076828;28;20032;-56
2023/07/27 07:31:30;;;;;;;9.68;5.03;;;15.30;99.90;;;;;;5076894;28;20098;-58
2023/07/27 07:33:56;;;;;;;10.15;4.80;;;15.50;99.90;;;;;;5078065;28;20037;-57
2023/07/27 07:36:22;;;;;;;9.95;4.60;;;15.50;99.90;;;;;;5075766;28;20049;-57
2023/07/27 07:38:47;;;;;;;8.18;4.50;;;15.50;99.90;;;;;;5077626;28;20052;-57
2023/07/27 07:41:13;;;;;;;7.90;4.63;;;15.40;99.90;;;;;;5075697;28;20040;-57
2023/07/27 07:43:41;;;;;;;7.72;4.13;;;15.50;99.90;;;;;;5077318;28;20978;-57
2023/07/27 07:46:14;;;;;;;7.57;4.38;;;15.50;99.90;;;;;;5076764;28;20056;-56
2023/07/27 07:48:40;;;;;;;7.55;4.13;;;15.50;99.90;;;;;;5075896;28;20162;-57
2023/07/27 07:51:12;;;;;;;7.53;4.20;;;15.50;99.90;;;;;;5077381;28;20155;-57
2023/07/27 07:53:38;;;;;;;7.20;4.07;;;15.50;99.90;;;;;;5075334;28;20080;-57
2023/07/27 07:56:05;;;;;;;8.27;4.40;;;15.60;99.90;;;;;;5077159;28;20563;-57
2023/07/27 07:58:31;;;;;;;7.80;4.30;;;15.60;99.90;;;;;;5096041;28;20040;-57
2023/07/27 08:00:57;;;;;;;7.55;4.32;;;15.60;99.90;;;;;;5096847;28;20044;-56
2023/07/27 08:03:23;;;;;;;8.43;4.20;;;15.70;99.90;;;;;;5096773;28;20046;-57
2023/07/27 08:05:48;;;;;;;8.18;4.55;;;15.70;99.90;;;;;;5077618;28;20042;-56
2023/07/27 08:08:14;;;;;;;7.40;4.28;;;15.70;99.90;;;;;;5097602;28;20032;-56
2023/07/27 08:10:40;;;;;;;5.85;3.47;;;15.70;99.90;;;;;;5095773;28;20495;-57
2023/07/27 08:13:06;;;;;;;7.80;4.50;;;15.80;99.90;;;;;;5078788;28;20117;-56
2023/07/27 08:15:31;;;;;;;7.18;3.67;;;15.90;99.90;;;;;;5095642;28;20036;-57
2023/07/27 08:17:57;;;;;;;7.07;3.83;;;15.80;99.90;;;;;;5095830;28;20056;-56
2023/07/27 08:20:23;;;;;;;8.27;4.00;;;15.80;99.90;;;;;;5096223;28;20563;-55
2023/07/27 08:22:48;;;;;;;6.78;3.50;;;15.80;99.90;;;;;;5077994;28;20036;-58
2023/07/27 08:25:17;;;;;;;6.63;3.38;;;15.80;99.90;;;;;;5096616;28;20092;-57
2023/07/27 08:27:42;;;;;;;6.57;3.22;;;15.80;99.90;;;;;;5095372;28;20044;-58
2023/07/27 08:30:08;;;;;;;5.50;2.92;;;15.90;99.90;;;;;;5096404;28;20521;-57
2023/07/27 08:32:34;;;;;;;6.00;3.17;;;15.90;99.90;;;;;;5095378;28;20138;-57
2023/07/27 08:35:00;;;;;;;5.28;2.67;;;16.00;99.90;;;;;;5096556;28;20042;-58
2023/07/27 08:37:26;;;;;;;5.85;2.58;;;16.00;99.90;;;;;;5095751;28;20039;-57
2023/07/27 08:39:51;;;;;;;5.15;2.50;;;15.90;99.90;;;;;;5095582;28;20044;-57
2023/07/27 08:42:18;;;;;;;5.80;2.50;;;15.90;99.90;;;;;;5096720;28;20047;-59
2023/07/27 08:44:44;;;;;;;5.10;2.13;;;15.90;99.90;;;;;;5095252;28;20055;-57
2023/07/27 08:47:11;;;;;;;5.50;2.28;;;16.00;99.90;;;;;;5096532;28;20048;-56
2023/07/27 08:49:37;;;;;;;5.38;2.40;;;15.90;99.90;;;;;;5094556;28;20654;-57
2023/07/27 08:52:03;;;;;;;5.25;2.30;;;16.00;99.90;;;;;;5095660;28;20578;-57
2023/07/27 08:54:29;;;;;;;5.90;2.60;;;16.00;99.90;;;;;;5094862;28;20042;-57
2023/07/27 08:56:55;;;;;;;6.18;2.42;;;16.00;99.90;;;;;;5088227;28;20040;-58
2023/07/27 08:59:24;;;;;;;4.18;1.92;;;16.20;99.90;;;;;;5076222;28;20061;-57
2023/07/27 09:01:51;;;;;;;5.40;2.30;;;16.30;99.90;;;;;;5073800;28;20079;-57
2023/07/27 09:04:17;;;;;;;4.53;2.10;;;16.20;99.90;;;;;;5075339;28;20047;-58
2023/07/27 09:06:44;;;;;;;6.53;2.83;;;16.20;99.90;;;;;;5041312;28;20044;-57
2023/07/27 09:09:25;;;;;;;5.32;2.42;;;16.50;99.90;;;;;;5075682;28;20055;-57
2023/07/27 09:11:51;;;;;;;6.55;2.92;;;16.50;99.90;;;;;;5075327;28;20079;-57
2023/07/27 09:14:19;;;;;;;5.38;2.28;;;16.60;99.90;;;;;;5074765;28;20067;-58
2023/07/27 09:16:46;;;;;;;4.72;2.25;;;16.70;99.90;;;;;;5075650;28;20044;-57
2023/07/27 09:19:12;;;;;;;4.97;2.25;;;16.70;99.90;;;;;;5073730;28;20443;-57
2023/07/27 09:21:46;;;;;;;5.30;2.50;;;16.60;99.90;;;;;;5075554;28;20088;-57
2023/07/27 09:24:13;;;;;;;6.38;2.40;;;16.50;99.90;;;;;;5057892;28;20045;-57
2023/07/27 09:26:48;;;;;;;4.18;1.92;;;16.50;99.90;;;;;;5079268;28;20066;-57
2023/07/27 09:29:19;;;;;;;4.75;2.05;;;16.40;99.90;;;;;;5079573;28;20040;-57
2023/07/27 09:31:50;;;;;;;5.03;2.42;;;16.50;99.90;;;;;;5060058;28;20105;-57
2023/07/27 09:34:20;;;;;;;4.53;1.80;;;16.50;99.90;;;;;;5061139;28;20102;-58
2023/07/27 09:36:46;;;;;;;4.80;2.33;;;16.70;99.90;;;;;;5077277;28;20093;-58
2023/07/27 09:39:14;;;;;;;4.00;1.80;;;16.60;99.90;;;;;;5060749;28;20048;-58
2023/07/27 09:41:44;;;;;;;4.88;2.10;;;16.60;99.90;;;;;;5080162;28;20100;-57
2023/07/27 09:44:17;;;;;;;4.70;2.10;;;16.70;99.90;;;;;;5098452;28;20036;-57
2023/07/27 09:46:44;;;;;;;5.32;2.28;;;16.70;99.90;;;;;;5099411;28;20040;-58
2023/07/27 09:49:12;;;;;;;4.07;1.70;;;16.60;99.90;;;;;;5079513;28;20104;-58
2023/07/27 09:51:38;;;;;;;4.63;2.00;;;16.70;99.90;;;;;;5080499;28;20507;-58
2023/07/27 09:54:05;;;;;;;4.45;1.65;;;16.70;99.90;;;;;;5097759;28;20051;-58
2023/07/27 09:56:31;;;;;;;4.15;1.70;;;16.70;99.90;;;;;;5094750;28;20037;-59
2023/07/27 09:58:58;;;;;;;4.43;1.83;;;16.60;99.90;;;;;;5078311;28;20507;-58
2023/07/27 10:01:24;;;;;;;5.32;2.20;;;16.70;99.90;;;;;;5077304;28;20074;-58
2023/07/27 10:03:50;;;;;;;4.05;1.70;;;16.70;99.90;;;;;;5079115;28;20029;-58
2023/07/27 10:06:17;;;;;;;3.63;1.55;;;16.80;99.90;;;;;;5077378;28;20055;-58
2023/07/27 10:08:45;;;;;;;5.53;2.40;;;16.90;99.90;;;;;;5078963;28;20047;-58
2023/07/27 10:11:11;;;;;;;4.35;1.95;;;16.80;99.90;;;;;;5077617;28;20135;-58
2023/07/27 10:13:44;;;;;;;4.72;1.70;;;16.80;99.90;;;;;;5078439;28;20045;-58
2023/07/27 10:16:16;;;;;;;3.47;1.50;;;17.00;99.90;;;;;;5078162;28;20049;-57
2023/07/27 10:18:47;;;;;;;3.72;1.50;;;17.00;99.90;;;;;;5058846;28;20041;-58
2023/07/27 10:21:21;;;;;;;3.72;1.42;;;17.00;99.90;;;;;;5078727;28;20079;-58
2023/07/27 10:24:01;;;;;;;3.67;1.27;;;16.80;99.90;;;;;;5077346;28;20037;-59
2023/07/27 10:26:46;;;;;;;2.80;1.15;;;17.00;99.90;;;;;;5078177;28;20045;-60
2023/07/27 10:29:21;;;;;;;2.78;1.10;;;17.00;99.90;;;;;;5078444;28;20063;-61
2023/07/27 10:32:00;;;;;;;3.28;1.38;;;17.10;99.90;;;;;;5076850;28;20048;-61
2023/07/27 10:34:27;;;;;;;3.10;1.25;;;17.10;99.90;;;;;;5060666;28;20598;-61
2023/07/27 10:36:57;;;;;;;3.85;1.30;;;17.10;99.90;;;;;;5077382;28;20043;-61
2023/07/27 10:39:26;;;;;;;3.50;1.50;;;17.20;99.90;;;;;;5078216;28;20049;-60
2023/07/27 10:42:09;;;;;;;3.17;1.40;;;17.20;99.90;;;;;;5077703;28;20052;-59
2023/07/27 10:44:54;;;;;;;3.95;1.70;;;17.30;99.90;;;;;;5077536;28;20049;-60
2023/07/27 10:47:25;;;;;;;3.53;1.50;;;17.20;99.90;;;;;;5079933;28;20075;-58
2023/07/27 10:49:55;;;;;;;3.97;1.90;;;17.10;99.90;;;;;;5080758;28;20082;-63
2023/07/27 10:52:23;;;;;;;4.47;2.10;;;17.10;99.90;;;;;;5081458;28;20511;-59
2023/07/27 10:54:50;;;;;;;4.30;1.85;;;17.10;99.90;;;;;;5081851;28;20059;-58
2023/07/27 10:57:18;;;;;;;4.43;1.98;;;16.90;99.90;;;;;;5091474;28;20085;-61
2023/07/27 10:59:46;;;;;;;4.68;2.20;;;16.90;99.90;;;;;;5102396;28;20035;-60
2023/07/27 11:02:17;;;;;;;4.43;2.08;;;16.80;99.90;;;;;;5100620;28;20078;-60
2023/07/27 11:04:44;;;;;;;4.50;2.30;;;16.80;99.90;;;;;;5101712;28;20095;-61
2023/07/27 11:07:11;;;;;;;4.72;2.22;;;16.70;99.90;;;;;;5098696;28;20055;-60
2023/07/27 11:09:44;;;;;;;4.13;2.28;;;16.70;99.90;;;;;;5098087;28;20387;-61
2023/07/27 11:12:10;;;;;;;4.88;2.47;;;16.80;99.90;;;;;;5097916;28;20048;-61
2023/07/27 11:14:36;;;;;;;4.10;2.10;;;16.60;99.90;;;;;;5096804;28;20036;-61
2023/07/27 11:17:03;;;;;;;4.25;2.28;;;16.60;99.90;;;;;;5097898;28;20113;-66
2023/07/27 11:19:29;;;;;;;4.43;2.25;;;16.60;99.90;;;;;;5096072;28;20063;-66
2023/07/27 11:21:55;;;;;;;5.10;2.60;;;16.60;99.90;;;;;;5097623;28;20047;-70
2023/07/27 11:24:21;;;;;;;5.00;2.47;;;16.70;99.90;;;;;;5096467;28;20050;-68
2023/07/27 11:26:47;;;;;;;6.78;2.78;;;16.70;99.90;;;;;;5097550;28;20044;-70
2023/07/27 11:29:12;;;;;;;4.78;2.58;;;16.80;99.90;;;;;;5097676;28;20055;-70
2023/07/27 11:31:38;;;;;;;5.32;2.50;;;16.80;99.90;;;;;;5096096;28;20502;-68
2023/07/27 11:34:04;;;;;;;5.05;2.65;;;17.00;99.90;;;;;;5097912;28;20076;-67
2023/07/27 11:36:31;;;;;;;5.40;2.90;;;17.00;99.90;;;;;;5096173;28;20907;-65
2023/07/27 11:38:58;;;;;;;5.50;2.80;;;17.00;99.90;;;;;;5096941;28;20040;-64
2023/07/27 11:41:29;;;;;;;5.50;2.88;;;16.90;99.90;;;;;;5096150;28;20519;-63
2023/07/27 11:43:56;;;;;;;5.20;2.92;;;16.90;99.90;;;;;;5096555;28;20047;-62
2023/07/27 11:46:25;;;;;;;5.10;2.90;;;16.80;99.90;;;;;;5097266;28;20044;-68
2023/07/27 11:48:51;;;;;;;5.88;2.90;;;16.90;99.90;;;;;;5095868;28;20353;-70
2023/07/27 11:51:17;;;;;;;4.80;2.42;;;17.00;99.90;;;;;;5097362;28;20068;-69
2023/07/27 11:53:46;;;;;;;5.35;2.92;;;17.10;99.90;;;;;;5095715;28;20063;-69
2023/07/27 11:56:13;;;;;;;5.75;2.90;;;17.10;99.90;;;;;;5095140;28;20079;-68
2023/07/27 11:58:40;;;;;;;5.90;2.92;;;17.10;99.90;;;;;;5075295;28;20080;-68
2023/07/27 12:01:06;;;;;;;5.63;3.03;;;17.10;99.90;;;;;;5076037;28;20051;-69
2023/07/27 12:03:32;;;;;;;5.60;2.85;;;17.00;99.90;;;;;;5058795;28;20044;-70
2023/07/27 12:06:00;;;;;;;5.30;3.15;;;17.10;99.90;;;;;;5075558;28;20458;-70
2023/07/27 12:08:26;;;;;;;6.05;3.47;;;17.30;99.90;;;;;;5076236;28;20096;-69
2023/07/27 12:10:56;;;;;;;5.65;3.20;;;17.20;99.90;;;;;;5057570;28;20110;-69
2023/07/27 12:13:23;;;;;;;6.10;3.63;;;17.20;99.90;;;;;;5076202;28;20060;-66
2023/07/27 12:16:03;;;;;;;6.05;3.10;;;17.20;99.90;;;;;;5075805;28;20119;-64
2023/07/27 12:18:30;;;;;;;5.80;3.25;;;17.30;99.90;;;;;;5074881;28;20078;-63
2023/07/27 12:20:57;;;;;;;5.90;3.60;;;17.40;99.90;;;;;;5076529;28;20056;-63
2023/07/27 12:23:24;;;;;;;6.03;3.65;;;17.40;99.90;;;;;;5074446;28;20036;-63
2023/07/27 12:25:50;;;;;;;5.95;3.63;;;17.50;99.90;;;;;;5076162;28;20059;-63
2023/07/27 12:28:16;;;;;;;6.30;3.25;;;17.60;99.90;;;;;;5075105;28;20477;-64
2023/07/27 12:30:43;;;;;;;4.93;2.88;;;17.60;99.90;;;;;;5076178;28;20079;-68
2023/07/27 12:33:09;;;;;;;5.13;3.05;;;17.80;99.90;;;;;;5075884;28;20033;-66
2023/07/27 12:35:35;;;;;;;5.28;3.28;;;17.90;99.90;;;;;;5075444;28;20037;-64
2023/07/27 12:38:01;;;;;;;5.85;3.38;;;18.20;99.90;;;;;;5076414;28;20084;-64
2023/07/27 12:40:27;;;;;;;5.50;3.20;;;18.10;99.90;;;;;;5056033;28;20044;-62
2023/07/27 12:42:53;;;;;;;5.10;2.90;;;18.20;99.90;;;;;;5075623;28;20045;-62
2023/07/27 12:45:19;;;;;;;5.88;3.00;;;18.40;99.90;;;;;;5074781;28;20048;-62